createdAt,value
2023-02-17T00:00:00.706Z,215.2
2023-02-17T00:05:01.506Z,204.2
2023-02-17T00:10:00.790Z,194.0
2023-02-17T00:15:00.816Z,177.2
2023-02-17T00:20:00.742Z,181.2
2023-02-17T00:25:00.906Z,179.3
2023-02-17T00:30:00.808Z,172.0
2023-02-17T00:35:00.882Z,167.6
2023-02-17T00:40:00.792Z,162.2
2023-02-17T00:45:00.824Z,138.4
2023-02-17T00:50:01.817Z,132.2
2023-02-17T00:55:01.450Z,134.6
2023-02-17T01:00:00.758Z,129.6
2023-02-17T01:05:01.678Z,150.1
2023-02-17T01:10:00.758Z,152.1
2023-02-17T01:15:00.845Z,150.3
2023-02-17T01:25:01.190Z,162.2
2023-02-17T01:30:00.868Z,138.9
2023-02-17T01:35:00.786Z,139.2
2023-02-17T01:40:00.737Z,132.7
2023-02-17T01:45:00.846Z,126.4
2023-02-17T02:00:01.721Z,98.8
2023-02-17T02:05:01.711Z,98.7
2023-02-17T02:10:01.615Z,100.6
2023-02-17T02:15:01.691Z,100.9
2023-02-17T02:20:06.633Z,101.0
2023-02-17T02:40:01.384Z,94.4
2023-02-17T02:45:03.488Z,94.0
2023-02-17T02:50:01.272Z,92.5
2023-02-17T02:55:01.399Z,93.0
2023-02-17T03:00:01.318Z,93.1
2023-02-17T03:05:01.757Z,93.7
2023-02-17T03:10:01.269Z,95.3
2023-02-17T03:15:01.325Z,96.8
2023-02-17T03:20:01.538Z,98.2
2023-02-17T03:25:01.584Z,99.5
2023-02-17T03:30:01.308Z,100.5
2023-02-17T03:35:01.448Z,100.7
2023-02-17T03:40:01.310Z,100.9
2023-02-17T03:45:01.374Z,108.1
2023-02-17T03:50:01.282Z,107.1
2023-02-17T03:55:01.401Z,106.5
2023-02-17T04:00:01.312Z,105.2
2023-02-17T04:05:01.391Z,105.6
2023-02-17T04:10:03.882Z,97.8
2023-02-17T04:15:01.310Z,100.2
2023-02-17T04:20:01.305Z,100.5
2023-02-17T04:25:02.366Z,102.0
2023-02-17T04:30:04.503Z,101.2
2023-02-17T04:35:01.377Z,101.8
2023-02-17T04:40:01.248Z,98.4
2023-02-17T04:45:01.365Z,95.8
2023-02-17T04:50:01.214Z,92.6
2023-02-17T04:55:01.354Z,90.4
2023-02-17T05:00:01.381Z,88.8
2023-02-17T05:05:01.347Z,88.6
2023-02-17T05:10:01.603Z,90.1
2023-02-17T05:15:01.307Z,92.6
2023-02-17T05:20:01.240Z,94.6
2023-02-17T05:25:01.337Z,95.6
2023-02-17T05:30:01.309Z,98.0
2023-02-17T05:35:01.262Z,99.5
2023-02-17T05:40:01.220Z,98.4
2023-02-17T05:45:01.222Z,98.2
2023-02-17T05:50:01.170Z,97.7
2023-02-17T05:55:01.736Z,96.6
2023-02-17T06:00:01.177Z,96.0
2023-02-17T06:05:01.384Z,97.7
2023-02-17T06:10:01.666Z,101.0
2023-02-17T06:15:02.396Z,103.6
2023-02-17T06:20:01.314Z,107.5
2023-02-17T06:25:01.278Z,111.6
2023-02-17T06:30:01.193Z,115.1
2023-02-17T06:35:01.241Z,117.7
2023-02-17T06:40:01.313Z,146.8
2023-02-17T06:50:01.230Z,197.9
2023-02-17T06:55:05.055Z,238.6
2023-02-17T07:00:01.154Z,280.0
2023-02-17T07:05:01.332Z,322.3
2023-02-17T07:10:01.403Z,289.9
2023-02-17T07:15:01.467Z,263.5
2023-02-17T07:20:01.180Z,245.5
2023-02-17T07:25:01.411Z,231.0
2023-02-17T07:30:01.297Z,199.0
2023-02-17T07:35:01.268Z,204.2
2023-02-17T07:45:01.344Z,181.5
2023-02-17T07:50:06.232Z,154.6
2023-02-17T07:55:02.178Z,121.6
2023-02-17T08:00:01.272Z,110.2
2023-02-17T08:05:01.270Z,109.8
2023-02-17T08:10:01.772Z,105.6
2023-02-17T08:15:01.246Z,106.5
2023-02-17T08:20:05.968Z,110.7
2023-02-17T08:25:01.203Z,107.8
2023-02-17T08:30:01.279Z,102.4
2023-02-17T08:35:02.296Z,99.0
2023-02-17T08:40:02.261Z,96.8
2023-02-17T08:45:06.451Z,94.0
2023-02-17T08:50:01.156Z,93.1
2023-02-17T08:55:01.234Z,93.7
2023-02-17T09:00:01.207Z,94.8
2023-02-17T09:05:01.396Z,95.6
2023-02-17T09:15:01.330Z,97.9
2023-02-17T09:20:01.198Z,99.2
2023-02-17T09:25:01.239Z,103.6
2023-02-17T09:30:01.203Z,112.0
2023-02-17T09:35:01.317Z,110.1
2023-02-17T09:45:01.324Z,105.8
2023-02-17T09:50:01.207Z,108.2
2023-02-17T09:55:01.446Z,104.3
2023-02-17T10:00:01.191Z,95.7
2023-02-17T10:05:01.314Z,99.3
2023-02-17T10:15:01.589Z,100.8
2023-02-17T10:20:01.234Z,96.5
2023-02-17T10:25:02.294Z,97.0
2023-02-17T10:30:01.232Z,97.4
2023-02-17T10:40:01.297Z,94.8
2023-02-17T10:45:01.426Z,94.6
2023-02-17T10:50:01.150Z,94.2
2023-02-17T10:55:04.660Z,93.2
2023-02-17T11:10:01.632Z,91.6
2023-02-17T11:30:06.413Z,93.0
2023-02-17T11:50:01.615Z,90.4
2023-02-17T11:55:01.596Z,89.8
2023-02-17T12:10:01.015Z,94.6
2023-02-17T12:30:01.592Z,91.8
2023-02-17T12:50:01.000Z,84.0
2023-02-17T12:55:06.031Z,88.4
2023-02-17T13:10:01.484Z,88.8
2023-02-17T13:15:01.389Z,84.9
2023-02-17T13:20:01.330Z,85.5
2023-02-17T13:40:01.212Z,92.8
2023-02-17T14:00:01.635Z,93.2
2023-02-17T14:05:01.596Z,93.6
2023-02-17T14:10:01.602Z,94.0
2023-02-17T14:15:02.488Z,94.9
2023-02-17T14:20:01.490Z,96.0
2023-02-17T14:25:02.090Z,98.6
2023-02-17T14:30:02.803Z,99.5
2023-02-17T14:35:01.516Z,100.5
2023-02-17T14:50:01.370Z,100.8
2023-02-17T14:55:07.318Z,109.3
2023-02-17T15:10:00.915Z,152.6
2023-02-17T15:15:00.804Z,118.4
2023-02-17T15:20:00.877Z,109.9
2023-02-17T15:25:01.841Z,103.9
2023-02-17T15:30:00.827Z,102.0
2023-02-17T15:35:06.901Z,90.4
2023-02-17T15:50:01.492Z,97.8
2023-02-17T15:55:01.439Z,103.1
2023-02-17T16:00:01.339Z,100.3
2023-02-17T16:20:01.110Z,93.4
2023-02-17T16:25:01.102Z,93.1
2023-02-17T16:30:06.074Z,94.3
2023-02-17T16:35:01.079Z,94.4
2023-02-17T16:40:00.980Z,95.6
2023-02-17T16:45:01.020Z,96.5
2023-02-17T16:50:01.347Z,96.4
2023-02-17T16:55:01.038Z,97.1
2023-02-17T17:00:05.989Z,95.0
2023-02-17T17:05:01.102Z,88.6
2023-02-17T17:10:16.136Z,84.0
2023-02-17T17:15:01.070Z,97.1
2023-02-17T17:20:01.209Z,90.6
2023-02-17T17:25:02.047Z,88.0
2023-02-17T17:30:01.119Z,92.6
2023-02-17T17:35:01.651Z,98.1
2023-02-17T17:40:00.987Z,83.4
2023-02-17T17:45:01.072Z,87.5
2023-02-17T17:50:00.984Z,78.0
2023-02-17T17:55:01.481Z,74.4
2023-02-17T18:00:00.973Z,68.0
2023-02-17T18:05:01.084Z,70.5
2023-02-17T18:10:01.978Z,71.3
2023-02-17T18:15:01.113Z,82.2
2023-02-17T18:20:01.010Z,80.6
2023-02-17T18:25:01.049Z,84.8
2023-02-17T18:30:01.382Z,72.4
2023-02-17T18:35:02.161Z,67.8
2023-02-17T18:40:01.010Z,72.2
2023-02-17T18:45:01.086Z,70.9
2023-02-17T18:50:01.327Z,74.6
2023-02-17T18:55:01.175Z,88.4
2023-02-17T19:00:01.014Z,93.2
2023-02-17T19:05:01.041Z,93.5
2023-02-17T19:10:00.980Z,89.5
2023-02-17T19:15:01.123Z,84.9
2023-02-17T19:20:06.017Z,72.9
2023-02-17T19:25:01.981Z,79.8
2023-02-17T19:30:01.051Z,59.9
2023-02-17T19:35:01.016Z,55.7
2023-02-17T19:40:04.423Z,47.1
2023-02-17T19:45:01.023Z,52.6
2023-02-17T19:50:01.443Z,28.0
2023-02-17T19:55:01.043Z,28.4
2023-02-17T20:00:01.943Z,29.0
2023-02-17T20:05:01.036Z,23.2
2023-02-17T20:10:00.962Z,38.4
2023-02-17T20:15:01.089Z,66.3
2023-02-17T20:20:00.987Z,84.3
2023-02-17T20:25:02.547Z,93.3
2023-02-17T20:30:01.042Z,90.4
2023-02-17T20:35:01.996Z,76.6
2023-02-17T20:40:01.667Z,55.2
2023-02-17T20:45:01.578Z,53.2
2023-02-17T20:50:01.015Z,42.4
2023-02-17T20:55:01.075Z,59.4
2023-02-17T21:00:01.386Z,55.3
2023-02-17T21:05:01.139Z,69.7
2023-02-17T21:10:00.997Z,75.7
2023-02-17T21:15:01.055Z,81.3
2023-02-17T21:20:01.322Z,78.3
2023-02-17T21:25:06.030Z,72.9
2023-02-17T21:30:00.996Z,61.4
2023-02-17T21:35:01.028Z,38.7
2023-02-17T21:40:00.991Z,33.4
2023-02-17T21:45:01.089Z,23.2
2023-02-17T21:50:01.041Z,26.9
2023-02-17T21:55:01.520Z,23.4
2023-02-17T22:00:06.126Z,23.4
2023-02-17T22:05:01.023Z,24.1
2023-02-17T22:10:00.957Z,47.0
2023-02-17T22:15:04.150Z,61.9
2023-02-17T22:20:00.987Z,73.5
2023-02-17T22:30:01.156Z,77.2
2023-02-17T22:35:01.429Z,60.0
2023-02-17T22:40:00.991Z,40.2
2023-02-17T22:45:01.101Z,32.0
2023-02-17T22:50:00.968Z,32.6
2023-02-17T22:55:01.104Z,25.6
2023-02-17T23:00:00.989Z,17.8
2023-02-17T23:05:01.037Z,14.3
2023-02-17T23:15:01.396Z,8.3
2023-02-17T23:20:00.993Z,16.6
2023-02-17T23:25:01.099Z,21.8
2023-02-17T23:30:01.020Z,21.5
2023-02-17T23:45:01.068Z,8.0
2023-02-17T23:55:01.439Z,18.4
